Bremerton National Airport Bremerton US
ICAO: KPWT
IATA: PWT
Category: Medium
Scheduled Services: No

Elevation: 444 ft
TransAlt. 18000 ft.

Airport Communications:
SEATTLE APP/DEP:127.1
AWOS 3:121.2
CTAF/UNICOM:123.05

KPWT Zoom In..

Runways:

(A) RW 02 length 6000 ft width 150 ft
---- / hdg 17

(B) RW 20 length 6000 ft width 150 ft
ILS 111.10 / hdg 197

Location; KPWT
Day. 21 / Time. 05.56 Zulu
* Altimeter: 30.13
* Temperature: 16° c. 60.8°f.
* Wind from: 070° Speed 04 kn.
Dewpoint: 10° c.
Visibility: 10 Statute Miles.
Clouds: Scattered 4700 ft.
Clouds: Broken 7000 ft.

KPWT 210556Z AUTO 07004KT 10SM SCT047 BKN070 16/10 A3013 RMK AO2 SLP219 T01610100 10228 20150 50004


Wind From 070°
Speed 04 kn.

 
 
jpsmedia.com for Web Design worldairports.se 2018   terms of use